Flight Track Log - Related Links

Times and Time Zones

All times are in EDT time to prevent confusion due to time zone crossing. See the SWA139 flight status page for this flight to view local times or setup timezone preferences in your user account.


Time Position Orientation Groundspeed Altitude Reporting Facility
EDT Latitude Longitude Course Direction KTS MPH feet Rate Location/Type
Tue 07:23:19 PM 33.9500 -118.4500 262° West 206 237 1,700  Level Southern California TRACON
Tue 07:24:43 PM 33.9381 -118.5550 227° Southwest 229 264 5,300 3,042 Climbing Los Angeles Center
Tue 07:25:43 PM 33.8889 -118.6186 159° South 243 280 9,000 3,350 Climbing Los Angeles Center
Tue 07:26:43 PM 33.8042 -118.5786 157° South 207 238 12,000 2,850 Climbing Los Angeles Center
Tue 07:27:43 PM 33.7111 -118.5308 117° Southeast 289 333 14,700 2,800 Climbing Los Angeles Center
Tue 07:28:43 PM 33.6611 -118.4147 100° East 315 362 17,600 2,950 Climbing Los Angeles Center
Tue 07:29:43 PM 33.6408 -118.2794 89° East 358 412 20,600 2,050 Climbing Los Angeles Center
Tue 07:30:43 PM 33.6431 -118.1447 90° East 373 429 21,700 1,750 Climbing Los Angeles Center
Tue 07:31:43 PM 33.6431 -118.0050 90° East 398 458 24,100 2,400 Climbing Los Angeles Center
Tue 07:32:43 PM 33.6433 -117.8603 90° East 412 474 26,500 2,200 Climbing Los Angeles Center
Tue 07:33:43 PM 33.6431 -117.7131 89° East 428 493 28,500 1,900 Climbing Los Angeles Center
Tue 07:34:43 PM 33.6450 -117.5608 91° East 444 511 30,300 1,750 Climbing Los Angeles Center
Tue 07:35:43 PM 33.6428 -117.3911 90° East 452 520 32,000 1,750 Climbing Los Angeles Center
Tue 07:36:43 PM 33.6422 -117.2292 90° East 464 534 33,800 1,600 Climbing Los Angeles Center
Tue 07:37:43 PM 33.6414 -117.0892 96° East 464 534 35,200 1,450 Climbing Los Angeles Center
Tue 07:38:43 PM 33.6281 -116.9269 99° East 471 542 36,700 1,450 Climbing Los Angeles Center
Tue 07:39:43 PM 33.6081 -116.7672 97° East 477 549 38,100 1,150 Climbing Los Angeles Center
Tue 07:40:43 PM 33.5919 -116.6100 99° East 482 555 39,000 450 Climbing Los Angeles Center
Tue 07:41:43 PM 33.5717 -116.4503 97° East 487 560 39,000  Level Los Angeles Center
Tue 07:42:43 PM 33.5553 -116.2908 100° East 482 555 39,000  Level Los Angeles Center
Tue 07:43:43 PM 33.5325 -116.1286 97° East 482 555 39,000  Level Los Angeles Center
Tue 07:44:43 PM 33.5158 -115.9742 98° East 482 555 39,000  Level Los Angeles Center
Tue 07:45:43 PM 33.4967 -115.8147 98° East 482 555 39,000  Level Los Angeles Center
Tue 07:46:43 PM 33.4775 -115.6581 98° East 482 555 39,000  Level Los Angeles Center
Tue 07:47:43 PM 33.4600 -115.5061 100° East 482 555 39,000  Level Los Angeles Center
Tue 07:48:43 PM 33.4361 -115.3472 98° East 482 555 39,000  Level Los Angeles Center
Tue 07:49:43 PM 33.4183 -115.1881 99° East 482 555 39,000  Level Los Angeles Center
Tue 07:50:43 PM 33.3983 -115.0289 100° East 482 555 39,000  Level Los Angeles Center
Tue 07:51:43 PM 33.3758 -114.8725 99° East 482 555 39,000  Level Los Angeles Center
Tue 07:52:43 PM 33.3553 -114.7161 99° East 482 555 39,000  Level Los Angeles Center
Tue 07:54:09 PM 33.3269 -114.4925 99° East 487 560 39,000  Level Albuquerque Center
Tue 07:55:09 PM 33.3069 -114.3369 99° East 482 555 39,000  Level Albuquerque Center
Tue 07:56:09 PM 33.2869 -114.1786 101° East 482 555 39,000  Level Albuquerque Center
Tue 07:57:09 PM 33.2625 -114.0228 98° East 482 555 39,000  Level Albuquerque Center
Tue 07:58:09 PM 33.2439 -113.8675 100° East 476 548 39,000  Level Albuquerque Center
Tue 07:59:09 PM 33.2211 -113.7094 99° East 470 541 39,000  Level Albuquerque Center
Tue 08:00:09 PM 33.2000 -113.5514 100° East 470 541 39,000  Level Albuquerque Center
Tue 08:01:09 PM 33.1767 -113.3958 99° East 470 541 39,000  Level Albuquerque Center
Tue 08:02:09 PM 33.1553 -113.2383 99° East 470 541 39,000  Level Albuquerque Center
Tue 08:03:09 PM 33.1336 -113.0831 100° East 470 541 39,000  Level Albuquerque Center
Tue 08:04:09 PM 33.1100 -112.9228 100° East 470 541 39,000  Level Albuquerque Center
Tue 08:05:09 PM 33.0858 -112.7650 99° East 470 541 39,000  Level Albuquerque Center
Tue 08:06:21 PM 33.0622 -112.5928 100° East 470 541 39,000  Level Albuquerque Center
Tue 08:07:21 PM 33.0350 -112.4053 102° East 470 541 39,000  Level Albuquerque Center
Tue 08:08:21 PM 33.0081 -112.2503 99° East 470 541 39,000  Level Albuquerque Center
Tue 08:09:21 PM 32.9872 -112.0906 100° East 470 541 39,000  Level Albuquerque Center
Tue 08:10:21 PM 32.9639 -111.9383 101° East 470 541 39,000  Level Albuquerque Center
Tue 08:11:21 PM 32.9383 -111.7886 100° East 470 541 39,000  Level Albuquerque Center
Tue 08:12:21 PM 32.9147 -111.6342 100° East 470 541 39,000  Level Albuquerque Center
Tue 08:13:21 PM 32.8944 -111.4947 101° East 475 547 39,000  Level Albuquerque Center
Tue 08:14:21 PM 32.8706 -111.3428 101° East 469 540 39,000  Level Albuquerque Center
Tue 08:15:21 PM 32.8464 -111.1908 102° East 469 540 39,000  Level Albuquerque Center
Tue 08:16:21 PM 32.8197 -111.0367 101° East 469 540 39,000  Level Albuquerque Center
Tue 08:17:21 PM 32.7953 -110.8850 100° East 469 540 39,000  Level Albuquerque Center
Tue 08:18:21 PM 32.7725 -110.7308 102° East 469 540 39,000  Level Albuquerque Center
Tue 08:19:21 PM 32.7453 -110.5817 101° East 469 540 39,000  Level Albuquerque Center
Tue 08:20:21 PM 32.7200 -110.4328 101° East 469 540 39,000  Level Albuquerque Center
Tue 08:21:21 PM 32.6944 -110.2839 101° East 464 534 39,000  Level Albuquerque Center
Tue 08:22:21 PM 32.6708 -110.1350 102° East 464 534 39,000  Level Albuquerque Center
Tue 08:23:21 PM 32.6450 -109.9864 102° East 464 534 39,000  Level Albuquerque Center
Tue 08:24:21 PM 32.6192 -109.8378 102° East 459 528 39,000  Level Albuquerque Center
Tue 08:25:33 PM 32.5872 -109.6569 102° East 459 528 39,000  Level Albuquerque Center
Tue 08:26:33 PM 32.5608 -109.5086 102° East 459 528 39,000  Level Albuquerque Center
Tue 08:27:33 PM 32.5322 -109.3428 102° East 459 528 39,000  Level Albuquerque Center
Tue 08:28:33 PM 32.5056 -109.1922 101° East 459 528 39,000  Level Albuquerque Center
Tue 08:29:33 PM 32.4806 -109.0439 103° East 459 528 39,000  Level Albuquerque Center
Tue 08:30:33 PM 32.4514 -108.8933 102° East 464 534 39,000  Level Albuquerque Center
Tue 08:31:33 PM 32.4239 -108.7406 101° East 469 540 39,000  Level Albuquerque Center
Tue 08:32:33 PM 32.3986 -108.5878 104° East 469 540 39,000 -1,000 Level Albuquerque Center
Tue 08:33:33 PM 32.3667 -108.4372 103° East 469 540 37,000 -2,350 Descending Albuquerque Center
Tue 08:34:33 PM 32.3386 -108.2897 102° East 469 540 34,300 -2,000 Descending Albuquerque Center
Tue 08:35:33 PM 32.3125 -108.1419 102° East 464 534 33,000 -800 Descending Albuquerque Center
Tue 08:36:33 PM 32.2864 -107.9994 103° East 458 527 32,700 -1,300 Descending Albuquerque Center
Tue 08:37:33 PM 32.2600 -107.8592 102° East 441 507 30,400 -2,150 Descending Albuquerque Center
Tue 08:38:33 PM 32.2353 -107.7242 102° East 430 495 28,400 -2,000 Descending Albuquerque Center
Tue 08:39:33 PM 32.2106 -107.5917 103° East 420 483 26,400 -2,000 Descending Albuquerque Center
Tue 08:40:33 PM 32.1858 -107.4617 101° East 409 471 24,400 -1,930 Descending Albuquerque Center
Tue 08:41:28 PM 32.1669 -107.3514 103° East 395 455 22,700 -1,900 Descending Albuquerque Center
Tue 08:42:33 PM 32.1400 -107.2164 104° East 385 443 20,600 -1,850 Descending Albuquerque Center
Tue 08:43:41 PM 32.1167 -107.1039 103° East 365 420 18,600 -1,756 Descending Albuquerque Center
Tue 08:44:36 PM 32.0936 -106.9864 102° East 353 406 17,000 -1,821 Descending Albuquerque Center
Tue 08:45:33 PM 32.0744 -106.8811 103° East 347 399 15,200 -1,795 Descending Albuquerque Center
Tue 08:46:33 PM 32.0531 -106.7758 105° East 342 394 13,500 -1,695 Descending Albuquerque Center
Tue 08:47:44 PM 32.0253 -106.6514 102° East 320 368 11,500 -1,536 Descending Albuquerque Center
Tue 08:48:38 PM 32.0103 -106.5683 103° East 311 358 10,300 -1,134 Descending Albuquerque Center
Tue 08:49:51 PM 31.9886 -106.4583 103° East 274 315 9,100 -761 Descending Albuquerque Center
Tue 08:50:52 PM 31.9733 -106.3803 105° East 244 281 8,600 -606 Descending Albuquerque Center
Tue 08:51:40 PM 31.9603 -106.3242 120° Southeast 208 239 8,000 -881 Descending Albuquerque Center
Tue 08:52:41 PM 31.9350 -106.2731 188° South 194 223 7,000 -992 Descending Albuquerque Center
Tue 08:53:41 PM 31.8869 -106.2811 230° Southwest 193 222 6,000 -992 Descending Albuquerque Center
Tue 08:54:48 PM 31.8519 -106.3303 230° Southwest 178 205 4,900 -885 Descending Albuquerque Center
Tue 08:55:43 PM 31.8253 -106.3672 120° Southeast 157 181 4,200 -764 Descending Albuquerque Center

Login

Don't have an account? Register now (free) for customized features, flight alerts, and more!